createdAt,value
2018-10-12T00:01:42.794Z,20.67
2018-10-12T00:04:12.873Z,21.60
2018-10-12T00:06:42.613Z,21.73
2018-10-12T00:09:13.001Z,24.87
2018-10-12T00:11:43.237Z,18.80
2018-10-12T00:14:13.189Z,23.13
2018-10-12T00:16:44.231Z,25.67
2018-10-12T00:19:14.737Z,23.30
2018-10-12T00:21:43.107Z,21.70
2018-10-12T00:24:13.900Z,19.87
2018-10-12T00:26:43.379Z,22.33
2018-10-12T00:29:11.900Z,25.13
2018-10-12T00:31:41.763Z,20.60
2018-10-12T00:34:11.861Z,24.33
2018-10-12T00:36:42.337Z,24.97
2018-10-12T00:39:11.876Z,26.90
2018-10-12T00:41:41.781Z,18.97
2018-10-12T00:44:10.718Z,29.77
2018-10-12T00:46:41.169Z,23.30
2018-10-12T00:49:10.917Z,25.43
2018-10-12T00:51:39.729Z,25.07
2018-10-12T00:54:09.960Z,24.10
2018-10-12T00:56:39.219Z,23.90
2018-10-12T00:59:10.012Z,32.47
2018-10-12T01:01:38.345Z,23.00
2018-10-12T01:04:07.605Z,25.07
2018-10-12T01:06:36.885Z,24.87
2018-10-12T01:09:05.665Z,23.90
2018-10-12T01:11:35.026Z,30.43
2018-10-12T01:14:04.438Z,27.50
2018-10-12T01:16:33.866Z,26.10
2018-10-12T01:19:03.062Z,27.00
2018-10-12T01:21:32.546Z,23.53
2018-10-12T01:24:00.889Z,24.03
2018-10-12T01:26:30.101Z,24.00
2018-10-12T01:28:59.322Z,25.83
2018-10-12T01:31:29.017Z,26.43
2018-10-12T01:33:58.237Z,26.53
2018-10-12T01:36:27.627Z,32.90
2018-10-12T01:38:56.845Z,27.33
2018-10-12T01:41:25.226Z,23.17
2018-10-12T01:43:55.429Z,27.70
2018-10-12T01:46:24.710Z,26.77
2018-10-12T01:48:53.837Z,27.30
2018-10-12T01:51:23.129Z,21.77
2018-10-12T01:53:52.382Z,22.17
2018-10-12T01:56:21.640Z,28.93
2018-10-12T01:58:50.918Z,22.50
2018-10-12T02:01:19.305Z,24.90
2018-10-12T02:03:47.902Z,26.50
2018-10-12T02:06:17.329Z,23.57
2018-10-12T02:08:45.653Z,29.63
2018-10-12T02:11:14.890Z,25.53
2018-10-12T02:13:43.308Z,27.47
2018-10-12T02:16:14.075Z,27.57
2018-10-12T02:18:42.495Z,32.03
2018-10-12T02:21:11.886Z,23.40
2018-10-12T02:23:42.828Z,34.67
2018-10-12T02:26:12.318Z,26.57
2018-10-12T02:28:43.101Z,25.23
2018-10-12T02:31:12.213Z,24.30
2018-10-12T02:33:42.441Z,26.87
2018-10-12T02:36:12.818Z,30.03
2018-10-12T02:38:42.725Z,38.80
2018-10-12T02:41:12.661Z,29.33
2018-10-12T02:43:42.391Z,26.87
2018-10-12T02:46:11.885Z,27.20
2018-10-12T02:48:40.909Z,34.80
2018-10-12T02:51:11.619Z,26.53
2018-10-12T02:53:41.385Z,37.17
2018-10-12T02:56:13.879Z,25.60
2018-10-12T02:58:43.268Z,29.70
2018-10-12T03:01:12.937Z,28.17
2018-10-12T03:03:42.746Z,31.33
2018-10-12T03:06:12.722Z,25.67
2018-10-12T03:08:42.150Z,27.53
2018-10-12T03:11:11.568Z,31.00
2018-10-12T03:13:43.442Z,26.00
2018-10-12T03:16:15.044Z,34.90
2018-10-12T03:18:43.742Z,31.40
2018-10-12T03:21:13.948Z,30.00
2018-10-12T03:23:43.289Z,28.70
2018-10-12T03:26:13.240Z,26.80
2018-10-12T03:28:45.843Z,27.03
2018-10-12T03:31:14.802Z,29.73
2018-10-12T03:33:44.196Z,31.30
2018-10-12T03:36:13.677Z,31.67
2018-10-12T03:38:43.122Z,28.40
2018-10-12T03:41:13.262Z,30.20
2018-10-12T03:43:42.974Z,31.30
2018-10-12T03:46:12.549Z,27.67
2018-10-12T03:48:42.385Z,31.37
2018-10-12T03:51:12.135Z,27.70
2018-10-12T03:53:42.166Z,33.63
2018-10-12T03:56:12.940Z,31.00
2018-10-12T03:58:42.338Z,29.47
2018-10-12T04:01:13.174Z,30.50
2018-10-12T04:03:43.202Z,31.17
2018-10-12T04:06:12.969Z,32.60
2018-10-12T04:08:42.357Z,31.43
2018-10-12T04:11:11.377Z,34.73
2018-10-12T04:13:41.143Z,41.03
2018-10-12T04:16:10.317Z,32.50
2018-10-12T04:18:39.272Z,35.43
2018-10-12T04:21:11.152Z,30.70
2018-10-12T04:23:40.317Z,35.40
2018-10-12T04:26:18.373Z,31.40
2018-10-12T04:28:46.713Z,32.40
2018-10-12T04:31:15.049Z,29.67
2018-10-12T04:33:43.400Z,38.60
2018-10-12T04:36:12.886Z,32.13
2018-10-12T04:38:52.861Z,33.27
2018-10-12T04:41:23.257Z,34.93
2018-10-12T04:43:54.058Z,28.13
2018-10-12T04:46:31.578Z,31.33
2018-10-12T04:49:01.157Z,32.63
2018-10-12T04:51:39.129Z,33.57
2018-10-12T04:54:07.982Z,33.97
2018-10-12T04:56:36.314Z,34.97
2018-10-12T04:59:04.745Z,31.67
2018-10-12T05:01:33.221Z,31.90
2018-10-12T05:04:01.566Z,31.63
2018-10-12T05:06:30.027Z,33.83
2018-10-12T05:08:58.377Z,39.10
2018-10-12T05:11:27.649Z,36.47
2018-10-12T05:13:55.979Z,32.57
2018-10-12T05:16:24.346Z,33.43
2018-10-12T05:18:52.788Z,32.90
2018-10-12T05:21:21.126Z,37.95
2018-10-12T05:23:49.500Z,38.60
2018-10-12T05:26:17.829Z,35.13
2018-10-12T05:28:46.175Z,42.43
2018-10-12T05:31:15.472Z,45.80
2018-10-12T05:33:43.901Z,40.57
2018-10-12T05:36:13.392Z,32.97
2018-10-12T05:38:43.461Z,41.63
2018-10-12T05:41:12.897Z,43.43
2018-10-12T05:43:42.845Z,52.07
2018-10-12T05:46:13.214Z,44.10
2018-10-12T05:48:55.324Z,37.60
2018-10-12T05:51:23.634Z,56.70
2018-10-12T05:53:53.077Z,34.80
2018-10-12T05:56:23.706Z,36.90
2018-10-12T05:58:52.864Z,38.67
2018-10-12T06:01:22.340Z,31.90
2018-10-12T06:03:51.553Z,31.53
2018-10-12T06:06:20.328Z,36.87
2018-10-12T06:08:49.665Z,35.97
2018-10-12T06:11:18.042Z,32.63
2018-10-12T06:13:47.293Z,36.53
2018-10-12T06:16:16.640Z,35.83
2018-10-12T06:18:45.033Z,36.13
2018-10-12T06:21:14.485Z,34.80
2018-10-12T06:23:43.850Z,31.57
2018-10-12T06:26:13.806Z,40.67
2018-10-12T06:28:43.017Z,33.13
2018-10-12T06:31:13.580Z,35.40
2018-10-12T06:33:42.954Z,32.33
2018-10-12T06:36:12.974Z,41.33
2018-10-12T06:38:44.433Z,34.10
2018-10-12T06:41:13.773Z,33.67
2018-10-12T06:43:43.145Z,30.20
2018-10-12T06:46:13.413Z,29.33
2018-10-12T06:48:44.099Z,32.33
2018-10-12T06:51:13.358Z,36.57
2018-10-12T06:53:43.526Z,31.10
2018-10-12T06:56:13.177Z,32.83
2018-10-12T06:58:43.426Z,40.63
2018-10-12T07:01:13.684Z,31.63
2018-10-12T07:03:43.843Z,29.73
2018-10-12T07:06:14.260Z,31.90
2018-10-12T07:08:43.887Z,27.40
2018-10-12T07:11:13.126Z,26.13
2018-10-12T07:13:43.456Z,31.23
2018-10-12T07:16:12.998Z,26.40
2018-10-12T07:18:43.601Z,26.80
2018-10-12T07:21:12.952Z,28.77
2018-10-12T07:23:42.969Z,31.23
2018-10-12T07:26:12.691Z,29.30
2018-10-12T07:28:42.271Z,29.53
2018-10-12T07:31:11.380Z,30.90
2018-10-12T07:33:42.750Z,26.43
2018-10-12T07:36:13.159Z,25.93
2018-10-12T07:38:42.298Z,23.03
2018-10-12T07:41:12.660Z,28.23
2018-10-12T07:43:42.692Z,27.77
2018-10-12T07:46:12.545Z,27.80
2018-10-12T07:48:43.741Z,29.43
2018-10-12T07:51:13.145Z,28.40
2018-10-12T07:53:43.236Z,26.90
2018-10-12T07:56:13.008Z,25.37
2018-10-12T07:58:43.209Z,22.90
2018-10-12T08:01:12.670Z,28.43
2018-10-12T08:03:42.233Z,33.87
2018-10-12T08:06:12.891Z,29.83
2018-10-12T08:08:43.339Z,28.50
2018-10-12T08:11:14.838Z,26.83
2018-10-12T08:13:44.083Z,23.43
2018-10-12T08:16:13.517Z,22.73
2018-10-12T08:18:43.055Z,23.93
2018-10-12T08:21:13.925Z,21.57
2018-10-12T08:23:43.903Z,17.60
2018-10-12T08:26:14.056Z,18.33
2018-10-12T08:28:43.085Z,23.93
2018-10-12T08:31:13.088Z,22.57
2018-10-12T08:33:42.895Z,23.03
2018-10-12T08:36:13.000Z,20.47
2018-10-12T08:38:43.638Z,23.20
2018-10-12T08:41:13.918Z,22.40
2018-10-12T08:43:43.057Z,19.90
2018-10-12T08:46:13.149Z,23.20
2018-10-12T08:48:42.861Z,19.27
2018-10-12T08:51:13.343Z,19.83
2018-10-12T08:53:43.195Z,20.57
2018-10-12T08:56:13.346Z,18.57
2018-10-12T08:58:43.677Z,19.33
2018-10-12T09:01:12.720Z,18.53
2018-10-12T09:03:43.110Z,24.40
2018-10-12T09:06:12.953Z,17.70
2018-10-12T09:08:42.772Z,19.60
2018-10-12T09:11:12.567Z,28.13
2018-10-12T09:13:42.889Z,16.70
2018-10-12T09:16:12.623Z,20.50
2018-10-12T09:18:42.901Z,20.47
2018-10-12T09:21:13.593Z,17.03
2018-10-12T09:23:43.735Z,20.23
2018-10-12T09:26:13.217Z,22.70
2018-10-12T09:28:43.507Z,20.47
2018-10-12T09:31:12.565Z,17.47
2018-10-12T09:33:42.847Z,19.50
2018-10-12T09:36:12.621Z,18.90
2018-10-12T09:38:42.785Z,22.40
2018-10-12T09:41:12.593Z,24.50
2018-10-12T09:43:41.955Z,18.83
2018-10-12T09:46:12.137Z,15.97
2018-10-12T09:48:41.949Z,15.67
2018-10-12T09:51:11.977Z,18.00
2018-10-12T09:53:41.390Z,21.90
2018-10-12T09:56:10.163Z,16.20
2018-10-12T09:58:39.199Z,17.47
2018-10-12T10:01:12.846Z,20.80
2018-10-12T10:03:48.311Z,14.30
2018-10-12T10:06:16.639Z,15.97
2018-10-12T10:08:44.998Z,15.70
2018-10-12T10:11:13.371Z,26.87
2018-10-12T10:13:43.517Z,23.70
2018-10-12T10:16:13.278Z,16.40
2018-10-12T10:18:43.366Z,17.73
2018-10-12T10:21:14.905Z,17.87
2018-10-12T10:23:44.130Z,16.13
2018-10-12T10:26:13.997Z,19.70
2018-10-12T10:28:44.397Z,20.67
2018-10-12T10:31:13.717Z,18.13
2018-10-12T10:33:44.436Z,17.13
2018-10-12T10:36:12.777Z,18.57
2018-10-12T10:38:43.487Z,18.20
2018-10-12T10:41:13.665Z,18.60
2018-10-12T10:43:43.213Z,15.13
2018-10-12T10:46:13.614Z,18.30
2018-10-12T10:48:44.286Z,20.37
2018-10-12T10:51:13.680Z,14.90
2018-10-12T10:53:44.460Z,15.00
2018-10-12T10:56:12.769Z,14.80
2018-10-12T10:58:42.968Z,17.23
2018-10-12T11:01:13.739Z,28.30
2018-10-12T11:03:44.501Z,17.00
2018-10-12T11:06:13.889Z,16.30
2018-10-12T11:08:43.225Z,16.30
2018-10-12T11:11:13.510Z,14.03
2018-10-12T11:13:43.733Z,16.90
2018-10-12T11:16:14.405Z,17.00
2018-10-12T11:18:44.825Z,14.03
2018-10-12T11:21:14.164Z,15.37
2018-10-12T11:23:44.100Z,15.60
2018-10-12T11:26:13.536Z,14.40
2018-10-12T11:28:44.305Z,15.80
2018-10-12T11:31:13.630Z,18.87
2018-10-12T11:33:44.302Z,55.50
2018-10-12T11:36:13.681Z,14.20
2018-10-12T11:38:43.015Z,26.87
2018-10-12T11:41:12.321Z,20.17
2018-10-12T11:43:42.421Z,13.70
2018-10-12T11:46:14.098Z,20.30
2018-10-12T11:48:43.555Z,19.17
2018-10-12T11:51:14.481Z,22.87
2018-10-12T11:53:42.813Z,16.93
2018-10-12T11:56:12.216Z,17.47
2018-10-12T11:58:43.061Z,18.63
2018-10-12T12:01:13.785Z,18.47
2018-10-12T12:03:43.229Z,15.30
2018-10-12T12:06:13.590Z,17.17
2018-10-12T12:08:42.613Z,13.90
2018-10-12T12:11:12.701Z,16.27
2018-10-12T12:13:42.543Z,14.27
2018-10-12T12:16:13.653Z,13.40
2018-10-12T12:18:44.486Z,13.77
2018-10-12T12:21:13.685Z,39.60
2018-10-12T12:23:44.485Z,13.93
2018-10-12T12:26:12.887Z,17.33
2018-10-12T12:28:42.253Z,15.20
2018-10-12T12:31:14.030Z,13.20
2018-10-12T12:33:43.310Z,14.57
2018-10-12T12:36:14.169Z,14.50
2018-10-12T12:38:43.549Z,11.90
2018-10-12T12:41:13.056Z,16.50
2018-10-12T12:43:43.821Z,15.57
2018-10-12T12:46:13.453Z,12.40
2018-10-12T12:48:43.705Z,12.33
2018-10-12T12:51:13.270Z,17.90
2018-10-12T12:53:43.925Z,17.30
2018-10-12T12:56:12.656Z,16.60
2018-10-12T12:58:42.557Z,13.93
2018-10-12T13:01:13.064Z,27.20
2018-10-12T13:03:42.921Z,16.70
2018-10-12T13:06:13.131Z,14.00
2018-10-12T13:08:43.517Z,18.30
2018-10-12T13:11:12.940Z,15.20
2018-10-12T13:13:43.269Z,24.00
2018-10-12T13:16:13.422Z,11.17
2018-10-12T13:18:43.593Z,13.57
2018-10-12T13:21:14.465Z,13.40
2018-10-12T13:23:43.676Z,14.30
2018-10-12T13:26:13.524Z,14.57
2018-10-12T13:28:43.758Z,14.60
2018-10-12T13:31:14.525Z,13.17
2018-10-12T13:33:43.867Z,15.10
2018-10-12T13:36:13.254Z,13.87
2018-10-12T13:38:43.313Z,13.47
2018-10-12T13:41:16.165Z,11.70
2018-10-12T13:43:44.525Z,13.00
2018-10-12T13:46:14.398Z,11.53
2018-10-12T13:48:43.450Z,11.97
2018-10-12T13:51:12.464Z,14.00
2018-10-12T13:53:43.505Z,16.43
2018-10-12T13:56:12.922Z,15.70
2018-10-12T13:58:43.130Z,15.73
2018-10-12T14:01:12.505Z,16.37
2018-10-12T14:03:41.645Z,19.13
2018-10-12T14:06:11.090Z,16.80
2018-10-12T14:08:40.700Z,26.90
2018-10-12T14:11:11.048Z,22.53
2018-10-12T14:13:43.012Z,20.30
2018-10-12T14:16:13.796Z,20.40
2018-10-12T14:18:43.167Z,16.63
2018-10-12T14:21:12.965Z,14.90
2018-10-12T14:23:43.591Z,16.93
2018-10-12T14:26:12.782Z,11.20
2018-10-12T14:28:42.091Z,15.30
2018-10-12T14:31:11.877Z,14.70
2018-10-12T14:33:40.713Z,16.90
2018-10-12T14:36:10.209Z,11.20
2018-10-12T14:38:39.152Z,19.13
2018-10-12T14:41:08.341Z,16.07
2018-10-12T14:43:37.599Z,14.03
2018-10-12T14:46:06.269Z,12.30
2018-10-12T14:48:34.604Z,17.23
2018-10-12T14:51:02.941Z,13.40
2018-10-12T14:53:31.359Z,13.60
2018-10-12T14:55:59.657Z,14.37
2018-10-12T14:58:28.364Z,12.30
2018-10-12T15:00:56.754Z,15.93
2018-10-12T15:03:25.105Z,15.37
2018-10-12T15:05:53.466Z,12.17
2018-10-12T15:08:21.821Z,13.50
2018-10-12T15:10:50.180Z,15.03
2018-10-12T15:13:18.520Z,17.97
2018-10-12T15:15:46.856Z,12.73
2018-10-12T15:18:15.201Z,13.20
2018-10-12T15:20:43.612Z,18.43
2018-10-12T15:23:12.833Z,19.43
2018-10-12T15:25:42.965Z,11.00
2018-10-12T15:28:12.342Z,12.67
2018-10-12T15:30:41.722Z,14.17
2018-10-12T15:33:11.489Z,13.80
2018-10-12T15:35:39.822Z,14.03
2018-10-12T15:38:08.157Z,14.93
2018-10-12T15:40:36.553Z,11.23
2018-10-12T15:43:04.948Z,13.43
2018-10-12T15:45:33.301Z,12.30
2018-10-12T15:48:01.645Z,16.53
2018-10-12T15:50:30.322Z,14.80
2018-10-12T15:52:58.688Z,12.50
2018-10-12T15:55:27.952Z,14.10
2018-10-12T15:57:56.288Z,13.30
2018-10-12T16:00:25.501Z,16.63
2018-10-12T16:02:53.862Z,12.33
2018-10-12T16:05:23.117Z,21.50
2018-10-12T16:07:51.485Z,16.13
2018-10-12T16:10:19.817Z,16.20
2018-10-12T16:12:48.157Z,17.53
2018-10-12T16:15:16.499Z,16.40
2018-10-12T16:17:44.961Z,16.07
2018-10-12T16:20:14.342Z,20.27
2018-10-12T16:22:44.272Z,16.37
2018-10-12T16:25:24.073Z,18.60
2018-10-12T16:27:53.353Z,16.50
2018-10-12T16:30:21.828Z,18.57
2018-10-12T16:32:50.179Z,16.57
2018-10-12T16:35:18.527Z,21.90
2018-10-12T16:37:47.744Z,16.23
2018-10-12T16:40:17.121Z,16.07
2018-10-12T16:42:46.332Z,16.50
2018-10-12T16:45:14.678Z,18.20
2018-10-12T16:47:44.029Z,17.80
2018-10-12T16:50:13.869Z,16.23
2018-10-12T16:52:43.313Z,14.53
2018-10-12T16:55:13.797Z,20.43
2018-10-12T16:57:44.288Z,19.70
2018-10-12T17:00:13.494Z,19.00
2018-10-12T17:02:43.099Z,20.20
2018-10-12T17:05:12.465Z,21.50
2018-10-12T17:07:41.869Z,20.13
2018-10-12T17:10:11.783Z,17.90
2018-10-12T17:12:40.490Z,17.57
2018-10-12T17:15:10.857Z,17.03
2018-10-12T17:17:41.914Z,18.77
2018-10-12T17:20:11.773Z,15.90
2018-10-12T17:22:42.413Z,17.53
2018-10-12T17:25:11.776Z,20.93
2018-10-12T17:27:43.029Z,17.93
2018-10-12T17:30:13.331Z,18.57
2018-10-12T17:32:43.645Z,18.00
2018-10-12T17:35:12.917Z,16.63
2018-10-12T17:37:42.451Z,18.10
2018-10-12T17:40:14.047Z,22.83
2018-10-12T17:42:44.830Z,31.60
2018-10-12T17:45:14.629Z,32.80
2018-10-12T17:47:43.854Z,27.77
2018-10-12T17:50:13.531Z,26.20
2018-10-12T17:52:44.063Z,25.63
2018-10-12T17:55:12.892Z,24.30
2018-10-12T17:57:43.678Z,25.97
2018-10-12T18:00:13.172Z,24.43
2018-10-12T18:02:43.206Z,22.73
2018-10-12T18:05:13.402Z,21.70
2018-10-12T18:07:44.209Z,25.17
2018-10-12T18:10:14.078Z,21.43
2018-10-12T18:12:43.417Z,20.57
2018-10-12T18:15:12.774Z,20.53
2018-10-12T18:17:42.276Z,22.30
2018-10-12T18:20:13.970Z,21.80
2018-10-12T18:22:43.056Z,26.33
2018-10-12T18:25:13.157Z,22.93
2018-10-12T18:27:44.418Z,22.40
2018-10-12T18:30:13.842Z,25.60
2018-10-12T18:32:43.329Z,20.77
2018-10-12T18:35:14.056Z,24.83
2018-10-12T18:37:42.921Z,21.10
2018-10-12T18:40:13.362Z,20.40
2018-10-12T18:42:43.712Z,22.37
2018-10-12T18:45:12.954Z,21.43
2018-10-12T18:47:44.737Z,23.30
2018-10-12T18:50:13.949Z,23.90
2018-10-12T18:52:44.817Z,27.80
2018-10-12T18:55:15.937Z,27.23
2018-10-12T18:57:44.367Z,26.70
2018-10-12T19:00:13.852Z,21.03
2018-10-12T19:02:44.010Z,23.10
2018-10-12T19:05:14.629Z,32.40
2018-10-12T19:07:44.446Z,23.83
2018-10-12T19:10:13.836Z,26.73
2018-10-12T19:12:44.676Z,23.57
2018-10-12T19:15:13.961Z,24.10
2018-10-12T19:17:43.637Z,23.30
2018-10-12T19:20:13.907Z,28.63
2018-10-12T19:22:43.842Z,24.23
2018-10-12T19:25:14.714Z,30.70
2018-10-12T19:27:43.948Z,24.43
2018-10-12T19:30:13.346Z,24.00
2018-10-12T19:32:46.199Z,26.30
2018-10-12T19:35:14.605Z,20.77
2018-10-12T19:37:44.087Z,22.50
2018-10-12T19:40:13.465Z,24.87
2018-10-12T19:42:43.504Z,22.03
2018-10-12T19:45:13.858Z,22.33
2018-10-12T19:47:43.570Z,26.93
2018-10-12T19:50:13.990Z,25.27
2018-10-12T19:52:43.024Z,28.17
2018-10-12T19:55:12.617Z,21.80
2018-10-12T19:57:42.405Z,23.07
2018-10-12T20:00:11.902Z,26.80
2018-10-12T20:02:41.849Z,22.93
2018-10-12T20:05:11.769Z,26.77
2018-10-12T20:07:42.153Z,24.00
2018-10-12T20:10:12.874Z,30.80
2018-10-12T20:12:43.518Z,22.43
2018-10-12T20:15:11.901Z,24.67
2018-10-12T20:17:41.919Z,26.10
2018-10-12T20:20:12.945Z,24.27
2018-10-12T20:22:42.545Z,25.40
2018-10-12T20:25:14.018Z,25.77
2018-10-12T20:27:44.073Z,23.33
2018-10-12T20:30:14.529Z,22.57
2018-10-12T20:32:43.648Z,24.07
2018-10-12T20:35:13.997Z,26.90
2018-10-12T20:37:43.340Z,28.77
2018-10-12T20:40:13.475Z,23.53
2018-10-12T20:42:42.773Z,22.07
2018-10-12T20:45:12.991Z,24.67
2018-10-12T20:47:43.048Z,23.50
2018-10-12T20:50:13.032Z,25.60
2018-10-12T20:52:42.386Z,23.57
2018-10-12T20:55:12.398Z,28.17
2018-10-12T20:57:48.242Z,27.50
2018-10-12T21:00:18.074Z,25.80
2018-10-12T21:02:46.670Z,27.07
2018-10-12T21:05:15.181Z,24.47
2018-10-12T21:07:44.683Z,24.60
2018-10-12T21:10:13.705Z,27.30
2018-10-12T21:12:43.979Z,25.73
2018-10-12T21:15:13.484Z,25.23
2018-10-12T21:17:43.304Z,27.30
2018-10-12T21:20:14.026Z,32.07
2018-10-12T21:22:43.332Z,27.03
2018-10-12T21:25:13.529Z,33.47
2018-10-12T21:27:43.113Z,30.23
2018-10-12T21:30:13.945Z,33.40
2018-10-12T21:32:44.333Z,32.63
2018-10-12T21:35:13.497Z,32.80
2018-10-12T21:37:42.960Z,27.43
2018-10-12T21:40:12.649Z,28.73
2018-10-12T21:42:42.729Z,28.50
2018-10-12T21:45:12.989Z,27.07
2018-10-12T21:47:42.797Z,27.93
2018-10-12T21:50:12.933Z,34.13
2018-10-12T21:52:43.781Z,32.70
2018-10-12T21:55:12.604Z,39.80
2018-10-12T21:57:42.446Z,38.07
2018-10-12T22:00:11.937Z,35.83
2018-10-12T22:02:41.925Z,30.63
2018-10-12T22:05:12.707Z,31.00
2018-10-12T22:07:42.693Z,32.53
2018-10-12T22:10:12.055Z,44.87
2018-10-12T22:12:42.037Z,29.47
2018-10-12T22:15:12.897Z,29.87
2018-10-12T22:17:43.865Z,28.33
2018-10-12T22:20:12.862Z,26.80
2018-10-12T22:22:43.022Z,34.40
2018-10-12T22:25:13.805Z,27.07
2018-10-12T22:27:43.621Z,25.50
2018-10-12T22:30:13.861Z,31.87
2018-10-12T22:32:43.229Z,25.47
2018-10-12T22:35:12.657Z,29.30
2018-10-12T22:37:42.842Z,31.63
2018-10-12T22:40:14.205Z,32.10
2018-10-12T22:42:43.219Z,29.20
2018-10-12T22:45:14.402Z,27.70
2018-10-12T22:47:44.099Z,26.97
2018-10-12T22:50:13.193Z,31.70
2018-10-12T22:52:41.996Z,30.03
2018-10-12T22:55:12.714Z,30.37
2018-10-12T22:57:42.093Z,31.37
2018-10-12T23:00:12.025Z,26.93
2018-10-12T23:02:41.609Z,30.67
2018-10-12T23:05:11.849Z,32.67
2018-10-12T23:07:41.961Z,29.80
2018-10-12T23:10:11.391Z,33.20
2018-10-12T23:12:47.678Z,28.00
2018-10-12T23:15:16.857Z,30.00
2018-10-12T23:17:46.349Z,29.93
2018-10-12T23:20:15.652Z,31.20
2018-10-12T23:22:44.061Z,29.47
2018-10-12T23:25:13.133Z,31.93
2018-10-12T23:27:42.009Z,28.50
2018-10-12T23:30:12.850Z,27.40
2018-10-12T23:32:42.677Z,29.60
2018-10-12T23:35:14.557Z,30.80
2018-10-12T23:37:43.721Z,28.87
2018-10-12T23:40:12.544Z,30.10
2018-10-12T23:42:42.088Z,30.83
2018-10-12T23:45:12.803Z,34.90
2018-10-12T23:47:43.394Z,33.40
2018-10-12T23:50:13.025Z,37.37
2018-10-12T23:52:42.446Z,34.47
2018-10-12T23:55:13.632Z,29.93
2018-10-12T23:57:43.122Z,31.53
